Time;durP1;ratioP1;P1;durP2;ratioP2;P2;SDS_P1;SDS_P2;PMS_P1;PMS_P2;Temp;Humidity;BMP_temperature;BMP_pressure;BME280_temperature;BME280_humidity;BME280_pressure;Samples;Min_cycle;Max_cycle;Signal;HPM_P1;HPM_P2
2023/03/01 00:01:12;;;;;;;23.13;14.63;;;;;;;;;;4958515;28;20415;-77
2023/03/01 00:03:39;;;;;;;26.13;15.32;;;;;;;;;;4958254;28;20051;-75
2023/03/01 00:06:06;;;;;;;23.15;14.40;;;;;;;;;;4973968;28;20061;-76
2023/03/01 00:08:33;;;;;;;24.13;14.20;;;;;;;;;;4957838;28;20138;-76
2023/03/01 00:11:10;;;;;;;18.65;12.55;;;;;;;;;;4957748;28;20051;-76
2023/03/01 00:13:38;;;;;;;21.33;14.30;;;;;;;;;;4970178;28;20077;-75
2023/03/01 00:16:11;;;;;;;23.02;14.55;;;;;;;;;;4995442;28;20070;-75
2023/03/01 00:18:38;;;;;;;;;;;;;;;;;;4993515;28;20400;-75
2023/03/01 00:21:05;;;;;;;21.80;14.15;;;;;;;;;;4994420;28;19928;-75
2023/03/01 00:23:33;;;;;;;22.08;14.75;;;;;;;;;;4992692;28;20058;-75
2023/03/01 00:26:00;;;;;;;23.27;14.63;;;;;;;;;;4994186;28;20073;-75
2023/03/01 00:28:27;;;;;;;22.45;13.63;;;;;;;;;;4976930;28;20054;-76
2023/03/01 00:30:53;;;;;;;22.67;14.40;;;;;;;;;;4960684;28;20058;-76
2023/03/01 00:33:20;;;;;;;23.20;14.55;;;;;;;;;;4987381;28;20061;-76
2023/03/01 00:35:47;;;;;;;24.05;15.00;;;;;;;;;;4972665;28;20051;-76
2023/03/01 00:38:16;;;;;;;20.30;13.32;;;;;;;;;;4941543;28;20106;-77
2023/03/01 00:40:43;;;;;;;22.70;14.77;;;;;;;;;;4973393;28;20059;-77
2023/03/01 00:43:10;;;;;;;22.90;14.90;;;;;;;;;;4988701;28;20048;-75
2023/03/01 00:45:37;;;;;;;20.58;13.30;;;;;;;;;;4976946;28;20050;-76
2023/03/01 00:48:04;;;;;;;20.20;13.07;;;;;;;;;;4992406;28;20046;-76
2023/03/01 00:50:31;;;;;;;21.58;15.13;;;;;;;;;;4960874;28;20060;-76
2023/03/01 00:52:58;;;;;;;23.45;14.77;;;;;;;;;;4972826;28;20054;-75
2023/03/01 00:55:25;;;;;;;24.65;14.63;;;;;;;;;;4976124;28;20046;-77
2023/03/01 00:57:52;;;;;;;21.52;14.23;;;;;;;;;;4960125;28;20053;-77
2023/03/01 01:00:19;;;;;;;22.13;13.98;;;;;;;;;;4992869;28;20133;-78
2023/03/01 01:02:46;;;;;;;23.38;14.90;;;;;;;;;;4976169;28;20695;-77
2023/03/01 01:05:13;;;;;;;23.27;15.75;;;;;;;;;;4977839;28;20108;-76
2023/03/01 01:07:40;;;;;;;20.98;13.90;;;;;;;;;;4980146;28;20062;-77
2023/03/01 01:10:07;;;;;;;22.40;14.50;;;;;;;;;;4964655;28;20058;-77
2023/03/01 01:12:34;;;;;;;22.88;14.75;;;;;;;;;;4972994;28;20055;-77
2023/03/01 01:15:00;;;;;;;21.27;14.85;;;;;;;;;;4972863;28;20051;-76
2023/03/01 01:17:27;;;;;;;23.40;15.13;;;;;;;;;;4975556;28;20054;-76
2023/03/01 01:19:54;;;;;;;23.17;14.48;;;;;;;;;;4981397;28;20053;-76
2023/03/01 01:22:20;;;;;;;22.70;15.13;;;;;;;;;;4974938;28;20047;-77
2023/03/01 01:24:47;;;;;;;22.50;14.35;;;;;;;;;;4956820;28;20430;-77
2023/03/01 01:27:14;;;;;;;21.10;14.40;;;;;;;;;;4959827;28;20054;-76
2023/03/01 01:29:41;;;;;;;24.65;16.38;;;;;;;;;;4959803;28;20050;-77
2023/03/01 01:32:08;;;;;;;24.40;15.68;;;;;;;;;;4976231;28;20117;-77
2023/03/01 01:34:35;;;;;;;25.30;15.73;;;;;;;;;;4976046;28;20141;-77
2023/03/01 01:37:02;;;;;;;24.13;14.52;;;;;;;;;;4975647;28;20061;-76
2023/03/01 01:39:29;;;;;;;23.35;15.15;;;;;;;;;;4975517;28;20050;-76
2023/03/01 01:41:56;;;;;;;23.38;15.18;;;;;;;;;;4991807;28;20150;-76
2023/03/01 01:44:27;;;;;;;24.48;15.88;;;;;;;;;;4991925;28;20084;-77
2023/03/01 01:46:57;;;;;;;22.83;14.43;;;;;;;;;;4975096;28;20046;-76
2023/03/01 01:49:28;;;;;;;24.20;15.15;;;;;;;;;;4991621;28;20050;-76
2023/03/01 01:51:59;;;;;;;21.48;14.20;;;;;;;;;;4991459;28;20054;-76
2023/03/01 01:54:35;;;;;;;24.08;15.68;;;;;;;;;;4991727;28;20054;-77
2023/03/01 01:57:03;;;;;;;22.38;15.25;;;;;;;;;;4959940;28;20054;-77
2023/03/01 01:59:30;;;;;;;25.52;15.15;;;;;;;;;;4959783;28;20093;-77
2023/03/01 02:01:58;;;;;;;21.17;14.45;;;;;;;;;;4975500;28;20090;-77
2023/03/01 02:04:25;;;;;;;23.90;14.23;;;;;;;;;;4958643;28;20063;-77
2023/03/01 02:06:57;;;;;;;22.33;13.75;;;;;;;;;;4974300;28;20054;-76
2023/03/01 02:09:24;;;;;;;24.13;14.55;;;;;;;;;;4974977;28;20060;-77
2023/03/01 02:11:51;;;;;;;21.33;13.70;;;;;;;;;;4991081;28;20521;-76
2023/03/01 02:14:18;;;;;;;24.55;14.77;;;;;;;;;;4991539;28;20400;-77
2023/03/01 02:16:44;;;;;;;25.38;15.57;;;;;;;;;;4975426;28;20494;-76
2023/03/01 02:19:18;;;;;;;26.40;15.60;;;;;;;;;;4972043;28;20043;-76
2023/03/01 02:21:55;;;;;;;23.17;15.48;;;;;;;;;;4972402;28;20059;-76
2023/03/01 02:24:49;;;;;;;26.15;15.25;;;;;;;;;;4979058;28;20661;-76
2023/03/01 02:27:17;;;;;;;25.23;15.77;;;;;;;;;;4969341;28;20058;-77
2023/03/01 02:29:43;;;;;;;24.98;15.60;;;;;;;;;;4945232;28;20070;-77
2023/03/01 02:32:10;;;;;;;23.15;15.35;;;;;;;;;;4961097;28;20058;-77
2023/03/01 02:34:37;;;;;;;24.27;15.43;;;;;;;;;;5008719;28;20062;-76
2023/03/01 02:37:12;;;;;;;23.08;15.30;;;;;;;;;;4991778;28;20058;-76
2023/03/01 02:39:48;;;;;;;32.28;16.48;;;;;;;;;;4984497;28;20133;-77
2023/03/01 02:42:19;;;;;;;23.20;15.18;;;;;;;;;;4973562;28;20066;-77
2023/03/01 02:44:46;;;;;;;25.58;15.10;;;;;;;;;;4992808;28;20058;-77
2023/03/01 02:47:12;;;;;;;25.33;15.27;;;;;;;;;;4961162;28;20058;-77
2023/03/01 02:49:39;;;;;;;23.23;15.68;;;;;;;;;;4974922;28;20542;-76
2023/03/01 02:52:24;;;;;;;27.88;16.00;;;;;;;;;;4992011;28;20059;-76
2023/03/01 02:54:59;;;;;;;22.48;15.43;;;;;;;;;;4982458;28;20061;-76
2023/03/01 02:57:27;;;;;;;21.25;15.15;;;;;;;;;;4990662;28;20054;-78
2023/03/01 02:59:59;;;;;;;25.92;16.60;;;;;;;;;;4974866;28;20054;-77
2023/03/01 03:02:37;;;;;;;27.00;15.10;;;;;;;;;;4974937;28;20065;-77
2023/03/01 03:05:13;;;;;;;25.05;16.52;;;;;;;;;;4961049;28;20054;-77
2023/03/01 03:07:41;;;;;;;24.90;15.63;;;;;;;;;;4990838;28;20057;-77
2023/03/01 03:10:19;;;;;;;27.50;17.23;;;;;;;;;;4970347;28;20050;-77
2023/03/01 03:12:51;;;;;;;25.98;16.00;;;;;;;;;;4974958;28;20054;-77
2023/03/01 03:15:17;;;;;;;22.15;14.80;;;;;;;;;;4974620;28;20055;-77
2023/03/01 03:17:44;;;;;;;25.60;15.85;;;;;;;;;;4978083;28;20054;-77
2023/03/01 03:20:18;;;;;;;25.50;16.10;;;;;;;;;;4978178;28;20511;-77
2023/03/01 03:22:47;;;;;;;26.48;16.80;;;;;;;;;;4963597;28;20054;-77
2023/03/01 03:25:14;;;;;;;24.67;16.95;;;;;;;;;;4994203;28;20064;-77
2023/03/01 03:27:42;;;;;;;26.83;17.50;;;;;;;;;;4962027;28;20066;-76
2023/03/01 03:30:12;;;;;;;26.90;16.75;;;;;;;;;;4958803;28;20059;-76
2023/03/01 03:32:39;;;;;;;26.92;16.80;;;;;;;;;;4990475;28;20105;-76
2023/03/01 03:35:10;;;;;;;26.50;15.85;;;;;;;;;;4977389;28;20050;-75
2023/03/01 03:40:30;;;;;;;25.33;17.00;;;;;;;;;;4992533;28;20042;-77
2023/03/01 03:42:56;;;;;;;23.23;16.10;;;;;;;;;;4975422;28;20054;-76
2023/03/01 03:45:23;;;;;;;25.30;17.42;;;;;;;;;;4956895;28;20046;-76
2023/03/01 03:47:50;;;;;;;27.67;16.75;;;;;;;;;;5007953;28;20267;-76
2023/03/01 03:50:17;;;;;;;24.40;16.42;;;;;;;;;;4977429;28;20574;-76
2023/03/01 03:52:44;;;;;;;25.75;15.75;;;;;;;;;;4993475;28;20472;-76
2023/03/01 03:55:11;;;;;;;29.50;17.80;;;;;;;;;;4975664;28;20054;-76
2023/03/01 03:57:39;;;;;;;27.33;16.70;;;;;;;;;;4975338;28;20487;-76
2023/03/01 04:00:12;;;;;;;25.23;16.38;;;;;;;;;;4991634;28;20490;-77
2023/03/01 04:02:40;;;;;;;26.33;16.88;;;;;;;;;;4977268;28;20582;-76
2023/03/01 04:05:08;;;;;;;25.52;16.20;;;;;;;;;;4993239;28;20488;-77
2023/03/01 04:07:36;;;;;;;26.90;16.70;;;;;;;;;;4977209;28;20062;-76
2023/03/01 04:10:04;;;;;;;25.73;15.63;;;;;;;;;;4992946;28;20422;-77
2023/03/01 04:12:31;;;;;;;27.48;17.23;;;;;;;;;;4993299;28;20062;-77
2023/03/01 04:15:13;;;;;;;26.05;16.48;;;;;;;;;;4961157;28;20054;-77
2023/03/01 04:17:41;;;;;;;24.92;15.25;;;;;;;;;;4989974;28;20073;-76
2023/03/01 04:20:24;;;;;;;25.55;16.25;;;;;;;;;;4973629;28;20055;-76
2023/03/01 04:23:10;;;;;;;25.45;16.77;;;;;;;;;;5000555;28;20054;-76
2023/03/01 04:25:41;;;;;;;26.10;17.08;;;;;;;;;;4963483;28;20054;-77
2023/03/01 04:28:08;;;;;;;23.48;15.55;;;;;;;;;;4992084;28;20062;-76
2023/03/01 04:30:36;;;;;;;24.85;15.45;;;;;;;;;;4970273;28;20527;-77
2023/03/01 04:33:07;;;;;;;26.25;17.48;;;;;;;;;;4989190;28;20500;-77
2023/03/01 04:35:35;;;;;;;23.50;15.70;;;;;;;;;;4991689;28;20503;-77
2023/03/01 04:38:02;;;;;;;24.45;15.90;;;;;;;;;;4976909;28;20074;-76
2023/03/01 04:40:29;;;;;;;27.15;16.27;;;;;;;;;;4992640;28;20112;-76
2023/03/01 04:42:55;;;;;;;24.92;16.08;;;;;;;;;;4976339;28;20116;-77
2023/03/01 04:45:22;;;;;;;23.17;16.45;;;;;;;;;;4976490;28;20053;-77
2023/03/01 04:47:51;;;;;;;26.33;16.40;;;;;;;;;;4993445;28;20061;-76
2023/03/01 04:50:23;;;;;;;26.25;16.52;;;;;;;;;;5018063;28;20034;-76
2023/03/01 04:52:52;;;;;;;25.95;17.02;;;;;;;;;;4999631;28;20066;-73
2023/03/01 04:55:40;;;;;;;30.95;19.42;;;;;;;;;;4997278;28;20068;-75
2023/03/01 04:58:11;;;;;;;26.73;17.88;;;;;;;;;;4984242;28;20046;-75
2023/03/01 05:00:49;;;;;;;29.45;18.38;;;;;;;;;;5016537;28;20042;-74
2023/03/01 05:03:18;;;;;;;28.38;19.08;;;;;;;;;;5002835;28;20054;-75
2023/03/01 05:05:53;;;;;;;28.58;17.42;;;;;;;;;;4992295;28;20038;-77
2023/03/01 05:08:22;;;;;;;27.40;16.42;;;;;;;;;;5012622;28;20060;-76
2023/03/01 05:10:50;;;;;;;22.90;16.00;;;;;;;;;;4987808;28;20047;-76
2023/03/01 05:13:21;;;;;;;25.88;16.60;;;;;;;;;;4982545;28;20057;-77
2023/03/01 05:15:49;;;;;;;25.75;15.65;;;;;;;;;;4968354;28;20058;-76
2023/03/01 05:18:16;;;;;;;26.65;17.00;;;;;;;;;;4965635;28;20125;-77
2023/03/01 05:20:44;;;;;;;26.58;16.08;;;;;;;;;;4964958;28;20057;-76
2023/03/01 05:23:14;;;;;;;23.30;15.40;;;;;;;;;;4982973;28;20058;-76
2023/03/01 05:25:41;;;;;;;23.77;16.65;;;;;;;;;;4966131;28;20145;-76
2023/03/01 05:28:11;;;;;;;28.40;16.65;;;;;;;;;;4999144;28;20420;-77
2023/03/01 05:30:41;;;;;;;28.20;16.27;;;;;;;;;;4958371;28;20137;-77
2023/03/01 05:33:17;;;;;;;29.02;17.42;;;;;;;;;;4978000;28;20050;-78
2023/03/01 05:35:44;;;;;;;22.58;16.00;;;;;;;;;;4973290;28;20142;-78
2023/03/01 05:38:15;;;;;;;25.42;16.27;;;;;;;;;;4967134;28;20050;-79
2023/03/01 05:40:43;;;;;;;25.45;15.85;;;;;;;;;;4994338;28;20046;-80
2023/03/01 05:43:11;;;;;;;23.00;15.48;;;;;;;;;;4977904;28;20502;-77
2023/03/01 05:45:39;;;;;;;26.92;16.42;;;;;;;;;;4980500;28;20054;-77
2023/03/01 05:48:06;;;;;;;23.92;14.98;;;;;;;;;;4980536;28;20082;-77
2023/03/01 05:50:35;;;;;;;31.20;17.65;;;;;;;;;;4998612;28;20056;-77
2023/03/01 05:53:07;;;;;;;23.08;15.55;;;;;;;;;;4992789;28;20048;-76
2023/03/01 05:55:35;;;;;;;27.17;17.13;;;;;;;;;;4987685;28;20101;-75
2023/03/01 05:58:03;;;;;;;26.77;16.95;;;;;;;;;;4969879;28;20055;-74
2023/03/01 06:00:31;;;;;;;26.88;17.60;;;;;;;;;;4974518;28;20053;-73
2023/03/01 06:02:58;;;;;;;25.63;16.23;;;;;;;;;;4986057;28;20069;-73
2023/03/01 06:05:26;;;;;;;24.42;16.20;;;;;;;;;;4990449;28;20057;-74
2023/03/01 06:07:53;;;;;;;29.92;18.20;;;;;;;;;;4984731;28;20062;-74
2023/03/01 06:10:21;;;;;;;26.17;17.08;;;;;;;;;;4968779;28;20057;-73
2023/03/01 06:12:48;;;;;;;26.85;17.02;;;;;;;;;;4970407;28;20058;-73
2023/03/01 06:15:16;;;;;;;26.08;16.13;;;;;;;;;;4968878;28;20065;-74
2023/03/01 06:17:44;;;;;;;26.35;17.30;;;;;;;;;;4985503;28;20051;-73
2023/03/01 06:20:15;;;;;;;26.67;16.88;;;;;;;;;;4971928;28;20058;-74
2023/03/01 06:22:43;;;;;;;28.60;16.40;;;;;;;;;;4989336;28;20054;-74
2023/03/01 06:25:12;;;;;;;26.83;17.65;;;;;;;;;;4999679;28;20050;-76
2023/03/01 06:27:39;;;;;;;28.08;17.02;;;;;;;;;;4989104;28;20054;-75
2023/03/01 06:30:07;;;;;;;30.33;17.90;;;;;;;;;;5004087;28;20059;-74
2023/03/01 06:32:34;;;;;;;33.42;19.15;;;;;;;;;;4956419;28;20058;-73
2023/03/01 06:35:01;;;;;;;27.52;18.00;;;;;;;;;;4989541;28;20125;-76
2023/03/01 06:37:27;;;;;;;29.85;17.80;;;;;;;;;;4990369;28;20072;-72
2023/03/01 06:39:54;;;;;;;28.75;18.33;;;;;;;;;;5009975;28;20065;-77
2023/03/01 06:42:21;;;;;;;26.30;17.55;;;;;;;;;;4995321;28;20054;-74
2023/03/01 06:44:47;;;;;;;24.42;16.40;;;;;;;;;;4984362;28;20065;-75
2023/03/01 06:47:15;;;;;;;27.30;17.90;;;;;;;;;;4989032;28;20124;-74
2023/03/01 06:49:42;;;;;;;25.83;15.82;;;;;;;;;;4947211;28;20415;-75
2023/03/01 06:52:09;;;;;;;24.95;16.75;;;;;;;;;;4962362;28;20051;-73
2023/03/01 06:54:35;;;;;;;26.60;17.48;;;;;;;;;;4975986;28;20081;-73
2023/03/01 06:57:02;;;;;;;24.10;16.45;;;;;;;;;;4964481;28;20074;-74
2023/03/01 06:59:29;;;;;;;26.77;17.45;;;;;;;;;;4988527;28;20129;-74
2023/03/01 07:01:56;;;;;;;26.17;16.77;;;;;;;;;;4973416;28;20058;-74
2023/03/01 07:04:22;;;;;;;26.75;17.33;;;;;;;;;;4973487;28;20163;-74
2023/03/01 07:06:54;;;;;;;28.88;17.05;;;;;;;;;;4972802;28;20055;-73
2023/03/01 07:09:24;;;;;;;27.93;17.63;;;;;;;;;;4971777;28;20455;-74
2023/03/01 07:11:51;;;;;;;29.73;17.73;;;;;;;;;;4954643;28;20059;-74
2023/03/01 07:14:19;;;;;;;26.50;17.58;;;;;;;;;;4971693;28;20070;-74
2023/03/01 07:16:46;;;;;;;30.38;18.48;;;;;;;;;;4955812;28;20053;-74
2023/03/01 07:19:12;;;;;;;28.35;18.20;;;;;;;;;;4955974;28;20078;-74
2023/03/01 07:21:39;;;;;;;26.83;16.75;;;;;;;;;;4971776;28;20538;-74
2023/03/01 07:24:07;;;;;;;29.50;17.83;;;;;;;;;;4972062;28;20422;-74
2023/03/01 07:26:34;;;;;;;30.45;18.70;;;;;;;;;;4973266;28;20066;-74
2023/03/01 07:29:01;;;;;;;27.90;17.38;;;;;;;;;;4957026;28;20051;-74
2023/03/01 07:31:28;;;;;;;30.05;18.20;;;;;;;;;;4973268;28;20054;-74
2023/03/01 07:33:55;;;;;;;30.75;18.63;;;;;;;;;;4956988;28;20061;-74
2023/03/01 07:36:23;;;;;;;29.30;17.45;;;;;;;;;;4972590;28;20055;-74
2023/03/01 07:38:50;;;;;;;29.13;17.45;;;;;;;;;;4972621;28;20062;-74
2023/03/01 07:41:17;;;;;;;26.38;17.23;;;;;;;;;;4972659;28;20514;-74
2023/03/01 07:43:44;;;;;;;32.42;18.08;;;;;;;;;;4957020;28;20066;-74
2023/03/01 07:46:11;;;;;;;28.42;18.23;;;;;;;;;;4972524;28;20081;-74
2023/03/01 07:48:37;;;;;;;28.55;18.05;;;;;;;;;;4972375;28;20064;-74
2023/03/01 07:51:05;;;;;;;32.92;18.77;;;;;;;;;;4972196;28;20061;-74
2023/03/01 07:53:33;;;;;;;31.20;19.40;;;;;;;;;;4972671;28;20068;-74
2023/03/01 07:56:05;;;;;;;29.48;17.90;;;;;;;;;;4972767;28;20138;-74
2023/03/01 07:58:36;;;;;;;34.17;19.27;;;;;;;;;;4972493;28;20062;-74
2023/03/01 08:01:07;;;;;;;28.63;17.88;;;;;;;;;;4972395;28;20051;-74
2023/03/01 08:03:34;;;;;;;27.35;17.90;;;;;;;;;;4971428;28;20068;-74
2023/03/01 08:06:07;;;;;;;28.55;17.17;;;;;;;;;;4972328;28;20118;-74
2023/03/01 08:08:33;;;;;;;22.00;14.43;;;;;;;;;;4972155;28;20067;-74
2023/03/01 08:11:01;;;;;;;32.30;17.60;;;;;;;;;;4972202;28;20547;-74
2023/03/01 08:13:28;;;;;;;29.40;18.10;;;;;;;;;;4972184;28;20058;-74
2023/03/01 08:15:54;;;;;;;31.00;17.80;;;;;;;;;;4971931;28;20423;-74
2023/03/01 08:18:21;;;;;;;27.45;17.52;;;;;;;;;;4971890;28;20059;-74
2023/03/01 08:20:48;;;;;;;28.23;17.63;;;;;;;;;;4972022;28;20054;-74
2023/03/01 08:23:14;;;;;;;29.50;18.23;;;;;;;;;;4972225;28;20055;-74
2023/03/01 08:25:42;;;;;;;29.17;17.55;;;;;;;;;;4972019;28;20058;-74
2023/03/01 08:28:08;;;;;;;28.98;18.17;;;;;;;;;;4971802;28;20079;-74
2023/03/01 08:30:35;;;;;;;27.60;17.00;;;;;;;;;;4971711;28;20420;-74
2023/03/01 08:33:02;;;;;;;24.90;16.63;;;;;;;;;;4971632;28;20054;-74
2023/03/01 08:35:28;;;;;;;27.15;17.27;;;;;;;;;;4955928;28;20141;-74
2023/03/01 08:37:55;;;;;;;29.42;18.27;;;;;;;;;;4971417;28;20054;-74
2023/03/01 08:40:22;;;;;;;31.80;18.55;;;;;;;;;;4971523;28;20051;-74
2023/03/01 08:42:49;;;;;;;26.35;17.58;;;;;;;;;;4972018;28;20499;-74
2023/03/01 08:45:18;;;;;;;30.08;18.20;;;;;;;;;;4972826;28;20051;-74
2023/03/01 08:47:45;;;;;;;27.77;18.10;;;;;;;;;;4955985;28;20059;-74
2023/03/01 08:50:11;;;;;;;26.90;17.40;;;;;;;;;;4955537;28;20074;-74
2023/03/01 08:52:38;;;;;;;28.00;17.75;;;;;;;;;;4971630;28;20107;-74
2023/03/01 08:55:05;;;;;;;27.92;17.15;;;;;;;;;;4971689;28;20050;-74
2023/03/01 08:57:32;;;;;;;29.45;18.23;;;;;;;;;;4971466;28;20113;-74
2023/03/01 08:59:59;;;;;;;25.25;16.33;;;;;;;;;;4971414;28;20054;-74
2023/03/01 09:02:26;;;;;;;25.55;17.23;;;;;;;;;;4955487;28;20061;-74
2023/03/01 09:04:52;;;;;;;29.15;17.23;;;;;;;;;;4971398;28;20062;-74
2023/03/01 09:07:19;;;;;;;27.63;16.58;;;;;;;;;;4970963;28;20150;-74
2023/03/01 09:09:46;;;;;;;27.80;17.65;;;;;;;;;;4955069;28;20082;-74
2023/03/01 09:12:13;;;;;;;28.17;17.50;;;;;;;;;;4971942;28;20113;-75
2023/03/01 09:14:41;;;;;;;24.65;16.65;;;;;;;;;;4954834;28;20062;-75
2023/03/01 09:17:07;;;;;;;25.05;17.30;;;;;;;;;;4970822;28;20064;-74
2023/03/01 09:19:34;;;;;;;25.83;17.05;;;;;;;;;;4970784;28;20054;-74
2023/03/01 09:22:03;;;;;;;23.98;16.90;;;;;;;;;;4970809;28;20054;-74
2023/03/01 09:24:30;;;;;;;26.20;16.33;;;;;;;;;;4971105;28;20066;-74
2023/03/01 09:26:57;;;;;;;26.60;16.23;;;;;;;;;;4955594;28;20054;-74
2023/03/01 09:29:24;;;;;;;24.83;15.85;;;;;;;;;;4971007;28;20055;-74
2023/03/01 09:31:50;;;;;;;26.55;17.92;;;;;;;;;;4970612;28;20419;-74
2023/03/01 09:34:22;;;;;;;25.90;16.88;;;;;;;;;;4970429;28;20584;-74
2023/03/01 09:36:50;;;;;;;24.77;15.93;;;;;;;;;;4970372;28;20546;-73
2023/03/01 09:39:17;;;;;;;26.35;17.27;;;;;;;;;;4972363;28;20058;-77
2023/03/01 09:41:56;;;;;;;26.33;17.08;;;;;;;;;;4959655;28;20374;-79
2023/03/01 09:44:28;;;;;;;26.75;17.17;;;;;;;;;;4955859;28;20507;-76
2023/03/01 09:46:56;;;;;;;29.80;17.00;;;;;;;;;;4954907;28;20096;-74
2023/03/01 09:49:30;;;;;;;24.75;16.58;;;;;;;;;;4970411;28;20065;-74
2023/03/01 09:51:59;;;;;;;25.98;16.95;;;;;;;;;;4970850;28;20043;-74
2023/03/01 09:54:26;;;;;;;23.83;16.15;;;;;;;;;;4970433;28;20055;-75
2023/03/01 09:57:06;;;;;;;24.33;16.65;;;;;;;;;;4968626;28;20069;-76
2023/03/01 09:59:52;;;;;;;25.92;16.42;;;;;;;;;;4969302;28;20058;-76
2023/03/01 10:02:59;;;;;;;24.63;15.52;;;;;;;;;;4968318;28;20383;-75
2023/03/01 10:05:37;;;;;;;26.23;16.90;;;;;;;;;;4958766;28;20411;-75
2023/03/01 10:08:10;;;;;;;23.65;15.65;;;;;;;;;;4941548;28;20058;-75
2023/03/01 10:10:42;;;;;;;24.50;15.95;;;;;;;;;;4968742;28;20291;-76
2023/03/01 10:13:29;;;;;;;21.90;14.93;;;;;;;;;;4969322;28;20051;-76
2023/03/01 10:15:59;;;;;;;22.60;15.77;;;;;;;;;;4950332;28;20074;-75
2023/03/01 10:18:27;;;;;;;23.48;16.08;;;;;;;;;;4962662;28;20570;-76
2023/03/01 10:21:00;;;;;;;25.20;16.55;;;;;;;;;;4988520;28;20101;-76
2023/03/01 10:23:28;;;;;;;23.20;15.23;;;;;;;;;;4932799;28;20086;-77
2023/03/01 10:26:19;;;;;;;27.27;14.55;;;;;;;;;;4943600;28;20059;-76
2023/03/01 10:28:59;;;;;;;24.42;14.13;;;;;;;;;;4959038;28;20074;-76
2023/03/01 10:31:36;;;;;;;25.73;14.88;;;;;;;;;;4963931;28;20058;-77
2023/03/01 10:34:16;;;;;;;24.10;15.10;;;;;;;;;;4952407;28;20078;-76
2023/03/01 10:36:44;;;;;;;25.70;14.50;;;;;;;;;;4951574;28;20277;-76
2023/03/01 10:39:15;;;;;;;24.15;14.85;;;;;;;;;;4935658;29;20063;-77
2023/03/01 10:42:06;;;;;;;22.40;14.60;;;;;;;;;;4949259;29;20569;-76
2023/03/01 10:44:47;;;;;;;22.92;15.63;;;;;;;;;;4949120;28;20093;-74
2023/03/01 10:47:23;;;;;;;19.98;14.32;;;;;;;;;;4963645;28;20077;-74
2023/03/01 10:50:03;;;;;;;21.88;14.15;;;;;;;;;;4955772;28;20058;-75
2023/03/01 10:52:35;;;;;;;21.02;14.73;;;;;;;;;;4945943;28;20114;-76
2023/03/01 10:55:24;;;;;;;22.88;13.68;;;;;;;;;;4965192;28;20051;-75
2023/03/01 10:57:50;;;;;;;22.38;15.13;;;;;;;;;;4942649;28;20076;-75
2023/03/01 11:00:23;;;;;;;19.30;13.93;;;;;;;;;;4933953;28;20057;-74
2023/03/01 11:03:12;;;;;;;23.48;14.77;;;;;;;;;;4961332;28;20054;-74
2023/03/01 11:06:04;;;;;;;20.80;13.63;;;;;;;;;;4945503;28;20097;-75
2023/03/01 11:08:44;;;;;;;20.38;13.93;;;;;;;;;;4941384;28;20052;-75
2023/03/01 11:11:21;;;;;;;19.33;13.65;;;;;;;;;;4970951;28;20062;-75
2023/03/01 11:13:58;;;;;;;20.88;14.20;;;;;;;;;;4979157;28;20054;-75
2023/03/01 11:16:27;;;;;;;24.42;13.68;;;;;;;;;;4966200;28;20069;-75
2023/03/01 11:19:21;;;;;;;18.73;12.90;;;;;;;;;;4957720;28;20059;-75
2023/03/01 11:21:52;;;;;;;20.45;13.13;;;;;;;;;;4955417;28;20051;-75
2023/03/01 11:24:19;;;;;;;21.17;13.27;;;;;;;;;;4940224;28;20066;-75
2023/03/01 11:26:51;;;;;;;20.13;13.20;;;;;;;;;;4961226;28;20055;-75
2023/03/01 11:29:41;;;;;;;20.65;12.90;;;;;;;;;;4958041;28;20059;-75
2023/03/01 11:32:14;;;;;;;21.45;13.88;;;;;;;;;;4971786;28;20479;-74
2023/03/01 11:35:01;;;;;;;21.52;13.02;;;;;;;;;;4957928;28;20499;-75
2023/03/01 11:37:45;;;;;;;20.48;13.55;;;;;;;;;;4964810;28;20612;-75
2023/03/01 11:40:24;;;;;;;20.77;12.68;;;;;;;;;;4931633;28;20055;-75
2023/03/01 11:43:16;;;;;;;18.52;12.52;;;;;;;;;;4947157;28;20077;-75
2023/03/01 11:46:02;;;;;;;16.50;12.38;;;;;;;;;;4961550;28;20066;-75
2023/03/01 11:48:29;;;;;;;20.50;13.23;;;;;;;;;;4961942;28;20051;-75
2023/03/01 11:51:35;;;;;;;20.45;12.23;;;;;;;;;;4966232;28;20477;-75
2023/03/01 11:54:29;;;;;;;19.45;12.73;;;;;;;;;;4962899;28;20058;-75
2023/03/01 11:57:24;;;;;;;19.40;12.95;;;;;;;;;;4965149;28;20058;-75
2023/03/01 12:00:19;;;;;;;18.90;12.27;;;;;;;;;;4967260;28;20074;-74
2023/03/01 12:02:51;;;;;;;19.10;13.20;;;;;;;;;;4970382;28;20496;-75
2023/03/01 12:06:06;;;;;;;18.98;12.70;;;;;;;;;;4975887;28;20066;-75
2023/03/01 12:08:41;;;;;;;19.58;11.10;;;;;;;;;;4957398;28;20063;-76
2023/03/01 12:11:29;;;;;;;20.20;12.48;;;;;;;;;;4968693;28;20051;-75
2023/03/01 12:14:28;;;;;;;17.42;12.68;;;;;;;;;;4965970;28;20054;-75
2023/03/01 12:16:59;;;;;;;29.45;13.48;;;;;;;;;;4974067;28;20071;-75
2023/03/01 12:20:06;;;;;;;18.42;12.10;;;;;;;;;;4973965;28;20079;-75
2023/03/01 12:23:01;;;;;;;17.02;11.48;;;;;;;;;;4960286;28;20463;-75
2023/03/01 12:25:57;;;;;;;17.85;11.88;;;;;;;;;;4977884;28;20055;-75
2023/03/01 12:29:05;;;;;;;18.40;11.75;;;;;;;;;;4967085;28;20500;-75
2023/03/01 12:32:03;;;;;;;16.45;11.73;;;;;;;;;;4952026;28;20059;-75
2023/03/01 12:34:55;;;;;;;19.00;12.23;;;;;;;;;;4925173;28;20083;-75
2023/03/01 12:37:34;;;;;;;18.48;12.85;;;;;;;;;;4948601;28;20414;-75
2023/03/01 12:40:40;;;;;;;20.65;11.43;;;;;;;;;;4971895;28;20476;-75
2023/03/01 12:43:14;;;;;;;16.73;10.70;;;;;;;;;;4973305;28;20055;-75
2023/03/01 12:46:02;;;;;;;15.65;11.00;;;;;;;;;;4964514;28;20051;-75
2023/03/01 12:49:06;;;;;;;16.27;11.45;;;;;;;;;;4978103;28;20058;-75
2023/03/01 12:51:34;;;;;;;;;;;;;;;;;;4977339;28;20113;-75
2023/03/01 12:54:14;;;;;;;16.83;11.57;;;;;;;;;;4974377;28;20431;-75
2023/03/01 12:56:41;;;;;;;17.42;12.02;;;;;;;;;;4963250;28;20534;-75
2023/03/01 12:59:13;;;;;;;14.85;11.38;;;;;;;;;;4960902;28;20419;-75
2023/03/01 13:01:58;;;;;;;15.88;11.85;;;;;;;;;;4950705;28;20070;-76
2023/03/01 13:05:03;;;;;;;15.40;11.98;;;;;;;;;;4975986;28;20504;-75
2023/03/01 13:07:49;;;;;;;15.93;11.43;;;;;;;;;;4969115;28;20161;-74
2023/03/01 13:10:21;;;;;;;17.00;12.00;;;;;;;;;;4981833;28;20507;-75
2023/03/01 13:12:57;;;;;;;15.43;12.43;;;;;;;;;;4943775;28;20138;-73
2023/03/01 13:15:37;;;;;;;14.73;11.75;;;;;;;;;;4978275;28;20305;-74
2023/03/01 13:18:16;;;;;;;14.70;11.75;;;;;;;;;;4962543;28;20689;-75
2023/03/01 13:20:43;;;;;;;17.42;11.77;;;;;;;;;;4963332;28;20069;-74
2023/03/01 13:23:18;;;;;;;18.50;12.50;;;;;;;;;;4964823;28;20055;-74
2023/03/01 13:26:12;;;;;;;14.93;11.05;;;;;;;;;;4958848;28;20058;-74
2023/03/01 13:28:45;;;;;;;15.52;12.30;;;;;;;;;;4959342;28;20631;-74
2023/03/01 13:31:15;;;;;;;17.17;14.02;;;;;;;;;;4956870;28;20511;-75
2023/03/01 13:33:48;;;;;;;18.27;13.25;;;;;;;;;;4973497;28;20107;-75
2023/03/01 13:36:48;;;;;;;17.40;12.57;;;;;;;;;;4972767;28;20416;-74
2023/03/01 13:39:33;;;;;;;19.80;13.00;;;;;;;;;;4961815;28;20064;-74
2023/03/01 13:42:00;;;;;;;18.10;13.35;;;;;;;;;;4944678;28;20404;-76
2023/03/01 13:44:38;;;;;;;17.95;12.98;;;;;;;;;;4936215;28;20055;-75
2023/03/01 13:47:13;;;;;;;16.38;13.07;;;;;;;;;;4958629;28;20499;-75
2023/03/01 13:49:46;;;;;;;17.75;13.52;;;;;;;;;;4955984;28;20055;-75
2023/03/01 13:52:33;;;;;;;21.00;14.15;;;;;;;;;;4946384;28;20400;-74
2023/03/01 13:55:01;;;;;;;18.48;13.98;;;;;;;;;;4977135;28;20062;-74
2023/03/01 13:57:33;;;;;;;18.65;14.40;;;;;;;;;;4950408;28;20527;-75
2023/03/01 13:59:59;;;;;;;18.88;14.18;;;;;;;;;;4975492;28;20057;-74
2023/03/01 14:02:26;;;;;;;21.35;14.20;;;;;;;;;;4959077;28;20537;-75
2023/03/01 14:04:57;;;;;;;20.40;13.63;;;;;;;;;;4959554;28;20546;-76
2023/03/01 14:07:25;;;;;;;19.23;13.65;;;;;;;;;;4942662;28;20058;-75
2023/03/01 14:09:54;;;;;;;19.02;14.23;;;;;;;;;;4956316;28;20059;-75
2023/03/01 14:12:41;;;;;;;18.77;13.95;;;;;;;;;;4951741;28;20492;-75
2023/03/01 14:15:13;;;;;;;22.20;14.10;;;;;;;;;;4944135;28;20054;-75
2023/03/01 14:17:58;;;;;;;18.77;14.77;;;;;;;;;;4960075;28;20479;-74
2023/03/01 14:20:35;;;;;;;21.95;14.88;;;;;;;;;;4959244;28;20492;-75
2023/03/01 14:23:07;;;;;;;22.75;14.43;;;;;;;;;;4935533;28;20113;-75
2023/03/01 14:25:35;;;;;;;21.30;14.07;;;;;;;;;;4957277;28;20062;-75
2023/03/01 14:28:37;;;;;;;19.95;14.35;;;;;;;;;;4974124;28;20085;-74
2023/03/01 14:31:21;;;;;;;20.08;13.65;;;;;;;;;;4962089;28;20114;-74
2023/03/01 14:33:54;;;;;;;22.48;14.75;;;;;;;;;;4927660;28;20431;-76
2023/03/01 14:36:27;;;;;;;20.50;14.07;;;;;;;;;;4958693;28;20058;-75
2023/03/01 14:38:54;;;;;;;20.10;14.43;;;;;;;;;;4955340;28;20051;-75
2023/03/01 14:41:24;;;;;;;22.40;14.65;;;;;;;;;;4967148;28;20055;-75
2023/03/01 14:43:58;;;;;;;21.42;16.08;;;;;;;;;;4957461;28;20069;-74
2023/03/01 14:46:39;;;;;;;20.63;14.38;;;;;;;;;;4958447;28;20055;-74
2023/03/01 14:49:12;;;;;;;22.63;15.38;;;;;;;;;;4951694;28;20047;-75
2023/03/01 14:51:40;;;;;;;22.95;14.57;;;;;;;;;;4971856;28;20051;-74